Mr Thomas — WDD7163 — position and weather

sailwx.info

Track history (hours):
 
Tides and Currents Weather Stations Pressure Air Temp Water Temp Dewpoint Dewpoint Depression Visibility Wind Speed Wind Dir Waves Ship Positions

Mr Thomas

Owner: CENTRAL BOAT RENTALS, BERWICK, LA. More information available from US FCC via Universal Licensing System and Coast Guard Vessel Documentation Center.

Last reported at 2016-Jul-21 23:33 UTC. Time now 2016-Jul-28 20:20 UTC.
Position N 30°00' W 089°56'.

Length 21 m; draft 2.5 m.

Type: Tug. MMSI: 367182730.

Date/timePositionNaut miles runAvg speedWind from/ knotsBaromVisibWave heightAir tempDewpointWater temp
2016-Jul-21 23:33N 30°00' W 089°56'5 4.7
2016-Jul-21 22:31N 29°58' W 090°01'0 0.0
2016-Jul-21 21:31N 29°58' W 090°01'1 0.6
2016-Jul-21 20:33N 29°58' W 090°02'0 0.3
2016-Jul-21 19:33N 29°58' W 090°02'0 0.1
2016-Jul-21 18:33N 29°58' W 090°02'2 2.1
2016-Jul-21 17:29N 29°56' W 089°60'0 0.0
2016-Jul-21 16:32N 29°56' W 089°60'0 0.0
2016-Jul-21 15:26N 29°56' W 089°60'0 0.0
2016-Jul-21 14:29N 29°56' W 089°60'0 0.0
2016-Jul-21 13:17N 29°56' W 089°60'0 0.0
2016-Jul-21 12:29N 29°56' W 089°60'0 0.0
2016-Jul-21 11:14N 29°56' W 089°60'0 0.0
2016-Jul-21 10:28N 29°56' W 089°60'0 0.0
2016-Jul-21 09:31N 29°56' W 089°60'0 0.0
2016-Jul-21 08:31N 29°56' W 089°60'0 0.0
2016-Jul-21 07:31N 29°56' W 089°60'0 0.0
2016-Jul-21 06:31N 29°56' W 089°60'0 0.0
2016-Jul-21 05:31N 29°56' W 089°60'0 0.0
2016-Jul-21 04:31N 29°56' W 089°60'0 0.0
2016-Jul-21 03:31N 29°56' W 089°60'0 0.0
2016-Jul-21 02:31N 29°56' W 089°60'0 0.0
2016-Jul-21 01:31N 29°56' W 089°60'0 0.0
2016-Jul-21 00:22N 29°56' W 089°60'0 0.0
2016-Jul-20 23:31N 29°56' W 089°60'0 0.0
2016-Jul-20 22:28N 29°56' W 089°60'0 0.0
2016-Jul-20 21:31N 29°56' W 089°60'2 1.7
2016-Jul-20 20:33N 29°55' W 089°59'0 0.2
2016-Jul-20 19:32N 29°54' W 089°59'4 4.1
2016-Jul-20 18:33N 29°51' W 090°01'4 4.3
2016-Jul-20 17:33N 29°47' W 090°04'4 3.8
2016-Jul-20 16:22N 29°45' W 090°08'23 5.6
2016-Jul-20 12:17N 29°34' W 090°31'5 6.0
2016-Jul-20 11:30N 29°35' W 090°36'5 5.7
2016-Jul-20 10:33N 29°37' W 090°42'5 5.0
2016-Jul-20 09:34N 29°33' W 090°45'7 6.6
2016-Jul-20 08:29N 29°33' W 090°54'  
2016-Jul-18 02:33N 29°51' W 091°56'6 5.7
2016-Jul-18 01:33N 29°49' W 092°02'5 5.4
2016-Jul-18 00:33N 29°47' W 092°08'4 3.9
2016-Jul-17 23:33N 29°47' W 092°12'1 1.3
2016-Jul-17 22:32N 29°48' W 092°14'3 2.9
2016-Jul-17 21:33N 29°49' W 092°17'5 4.6
2016-Jul-17 20:34N 29°51' W 092°22'5 4.9
2016-Jul-17 19:33N 29°53' W 092°26'30 5.1
2016-Jul-17 13:33N 29°56' W 093°01'5 5.1
2016-Jul-17 12:33N 29°56' W 093°07'5 4.5
2016-Jul-17 11:34N 29°58' W 093°12'4 4.5
2016-Jul-17 10:33N 30°02' W 093°15'4 3.9
2016-Jul-17 09:31N 30°05' W 093°18'2 1.9
2016-Jul-17 08:33N 30°05' W 093°20'2 1.7
2016-Jul-17 07:29N 30°03' W 093°20'3 3.3
2016-Jul-17 06:32N 30°05' W 093°17'13 6.6
2016-Jul-17 04:33N 29°56' W 093°06'8 7.6
2016-Jul-17 03:33N 29°56' W 092°58'9 7.6
2016-Jul-17 02:21N 29°58' W 092°47'22 7.6
2016-Jul-16 23:31N 29°53' W 092°23'7 7.0
2016-Jul-16 22:34N 29°49' W 092°17'5 5.0
2016-Jul-16 21:34N 29°47' W 092°12'3 2.8
2016-Jul-16 20:34N 29°47' W 092°09'7 7.2
2016-Jul-16 19:34N 29°50' W 092°01'8 7.8
2016-Jul-16 18:33N 29°51' W 091°52'  
2016-Jul-12 20:33N 29°32' W 090°48'1 0.9
2016-Jul-12 19:28N 29°32' W 090°47'2 2.2
2016-Jul-12 18:28N 29°32' W 090°49'3 2.2
2016-Jul-12 17:06N 29°32' W 090°53'3 3.0
2016-Jul-12 16:07N 29°34' W 090°56'  
Track history (hours):
 
Tides and Currents Weather Stations Pressure Air Temp Water Temp Dewpoint Dewpoint Depression Visibility Wind Speed Wind Dir Waves Ship Positions

Mr Thomas

Owner: CENTRAL BOAT RENTALS, BERWICK, LA. More information available from US FCC via Universal Licensing System and Coast Guard Vessel Documentation Center.

Last reported at 2016-Jul-21 23:33 UTC. Time now 2016-Jul-28 20:20 UTC.
Position N 30°00' W 089°56'.

Length 21 m; draft 2.5 m.

Type: Tug. MMSI: 367182730.

Date/timePositionNaut miles runAvg speedWind from/ knotsBaromVisibWave heightAir tempDewpointWater temp
2016-Jul-21 23:33N 30°00' W 089°56'5 4.7
2016-Jul-21 22:31N 29°58' W 090°01'0 0.0
2016-Jul-21 21:31N 29°58' W 090°01'1 0.6
2016-Jul-21 20:33N 29°58' W 090°02'0 0.3
2016-Jul-21 19:33N 29°58' W 090°02'0 0.1
2016-Jul-21 18:33N 29°58' W 090°02'2 2.1
2016-Jul-21 17:29N 29°56' W 089°60'0 0.0
2016-Jul-21 16:32N 29°56' W 089°60'0 0.0
2016-Jul-21 15:26N 29°56' W 089°60'0 0.0
2016-Jul-21 14:29N 29°56' W 089°60'0 0.0
2016-Jul-21 13:17N 29°56' W 089°60'0 0.0
2016-Jul-21 12:29N 29°56' W 089°60'0 0.0
2016-Jul-21 11:14N 29°56' W 089°60'0 0.0
2016-Jul-21 10:28N 29°56' W 089°60'0 0.0
2016-Jul-21 09:31N 29°56' W 089°60'0 0.0
2016-Jul-21 08:31N 29°56' W 089°60'0 0.0
2016-Jul-21 07:31N 29°56' W 089°60'0 0.0
2016-Jul-21 06:31N 29°56' W 089°60'0 0.0
2016-Jul-21 05:31N 29°56' W 089°60'0 0.0
2016-Jul-21 04:31N 29°56' W 089°60'0 0.0
2016-Jul-21 03:31N 29°56' W 089°60'0 0.0
2016-Jul-21 02:31N 29°56' W 089°60'0 0.0
2016-Jul-21 01:31N 29°56' W 089°60'0 0.0
2016-Jul-21 00:22N 29°56' W 089°60'0 0.0
2016-Jul-20 23:31N 29°56' W 089°60'0 0.0
2016-Jul-20 22:28N 29°56' W 089°60'0 0.0
2016-Jul-20 21:31N 29°56' W 089°60'2 1.7
2016-Jul-20 20:33N 29°55' W 089°59'0 0.2
2016-Jul-20 19:32N 29°54' W 089°59'4 4.1
2016-Jul-20 18:33N 29°51' W 090°01'4 4.3
2016-Jul-20 17:33N 29°47' W 090°04'4 3.8
2016-Jul-20 16:22N 29°45' W 090°08'23 5.6
2016-Jul-20 12:17N 29°34' W 090°31'5 6.0
2016-Jul-20 11:30N 29°35' W 090°36'5 5.7
2016-Jul-20 10:33N 29°37' W 090°42'5 5.0
2016-Jul-20 09:34N 29°33' W 090°45'7 6.6
2016-Jul-20 08:29N 29°33' W 090°54'  
2016-Jul-18 02:33N 29°51' W 091°56'6 5.7
2016-Jul-18 01:33N 29°49' W 092°02'5 5.4
2016-Jul-18 00:33N 29°47' W 092°08'4 3.9
2016-Jul-17 23:33N 29°47' W 092°12'1 1.3
2016-Jul-17 22:32N 29°48' W 092°14'3 2.9
2016-Jul-17 21:33N 29°49' W 092°17'5 4.6
2016-Jul-17 20:34N 29°51' W 092°22'5 4.9
2016-Jul-17 19:33N 29°53' W 092°26'30 5.1
2016-Jul-17 13:33N 29°56' W 093°01'5 5.1
2016-Jul-17 12:33N 29°56' W 093°07'5 4.5
2016-Jul-17 11:34N 29°58' W 093°12'4 4.5
2016-Jul-17 10:33N 30°02' W 093°15'4 3.9
2016-Jul-17 09:31N 30°05' W 093°18'2 1.9
2016-Jul-17 08:33N 30°05' W 093°20'2 1.7
2016-Jul-17 07:29N 30°03' W 093°20'3 3.3
2016-Jul-17 06:32N 30°05' W 093°17'13 6.6
2016-Jul-17 04:33N 29°56' W 093°06'8 7.6
2016-Jul-17 03:33N 29°56' W 092°58'9 7.6
2016-Jul-17 02:21N 29°58' W 092°47'22 7.6
2016-Jul-16 23:31N 29°53' W 092°23'7 7.0
2016-Jul-16 22:34N 29°49' W 092°17'5 5.0
2016-Jul-16 21:34N 29°47' W 092°12'3 2.8
2016-Jul-16 20:34N 29°47' W 092°09'7 7.2
2016-Jul-16 19:34N 29°50' W 092°01'8 7.8
2016-Jul-16 18:33N 29°51' W 091°52'  
2016-Jul-12 20:33N 29°32' W 090°48'1 0.9
2016-Jul-12 19:28N 29°32' W 090°47'2 2.2
2016-Jul-12 18:28N 29°32' W 090°49'3 2.2
2016-Jul-12 17:06N 29°32' W 090°53'3 3.0
2016-Jul-12 16:07N 29°34' W 090°56'  

Dump ship's entire track history